Etusivu
METAR-TAF:

METAR-TAF

Lentoasemat :

Leknesin lentoasema

Leknes, Norja

Leveyspiiri: 68-09N, Pituuspiiri: 013-37E, korkeus merenpinnasta: 2 m

Tämänhetkinen sää

Tämä raportti tehtiin 22 minuuttia sitten, kello 15.20 UTC
Tuuli 13 kn etelästä
Lämpötila 14°C
Kosteus 72%
Ilmanpaine 1011 hPa
Näkyvyys 10 km tai enemmän
Muutamia pilviä 2000 ft:n korkeudessa
Hajanaisia pilviä 3000 ft:n korkeudessa
Hajonneita pilviä 4500 ft:n korkeudessa

METAR: ENLK 231520Z 19013KT 9999 FEW020 SCT030 BKN045 14/09 Q1011

Aika: 17:42 (15:42 UTC)


TAF: puuttuu

Säähavainnot ja -ennusteet yli 4000 lentoasemalta (METAR- ja TAF-raportit).

Käytössä olevat sääasemat on merkitty karttaan keltaisilla ja punaisilla pisteillä.

Aseta hiiri pisteen päälle nähdäksesi sääaseman nimen.

Klikkaa sitten nähdäksesi säähavainnot ja -ennusteet.

Kartan vaihtaminen: klikkaa mustalla rastilla varustettuja vihreitä pisteitä, niin voit zoomata sisään; viivalla varustettua vihreää pistettä, niin voit zoomata ulos tai vihreitä nuolia, niin pääset viereisille kartoille.


METAR-TAF: